createdAt,value
2023-01-12T00:02:21.204Z,92.57
2023-01-12T00:04:52.878Z,92.58
2023-01-12T00:07:24.280Z,92.61
2023-01-12T00:09:58.717Z,92.63
2023-01-12T00:12:27.561Z,92.69
2023-01-12T00:14:59.322Z,92.72
2023-01-12T00:17:30.992Z,92.87
2023-01-12T00:20:01.702Z,92.77
2023-01-12T00:22:32.286Z,92.93
2023-01-12T00:25:01.877Z,93.01
2023-01-12T00:27:30.845Z,93.13
2023-01-12T00:30:01.169Z,93.07
2023-01-12T00:32:32.354Z,93.14
2023-01-12T00:35:02.783Z,93.27
2023-01-12T00:37:33.437Z,93.09
2023-01-12T00:40:04.431Z,93.23
2023-01-12T00:42:53.927Z,93.21
2023-01-12T00:45:24.923Z,93.66
2023-01-12T00:47:55.709Z,93.55
2023-01-12T00:50:28.420Z,93.56
2023-01-12T00:52:59.465Z,93.59
2023-01-12T00:55:32.060Z,93.49
2023-01-12T00:58:29.435Z,93.73
2023-01-12T01:01:10.649Z,93.57
2023-01-12T01:03:40.528Z,93.38
2023-01-12T01:06:11.666Z,93.58
2023-01-12T01:08:41.926Z,93.65
2023-01-12T01:11:13.931Z,93.79
2023-01-12T01:13:48.361Z,93.65
2023-01-12T01:16:19.259Z,93.85
2023-01-12T01:18:50.295Z,93.80
2023-01-12T01:21:20.150Z,93.89
2023-01-12T01:23:50.713Z,93.83
2023-01-12T01:26:21.716Z,94.11
2023-01-12T01:28:52.266Z,94.24
2023-01-12T01:31:26.335Z,94.15
2023-01-12T01:33:55.569Z,94.09
2023-01-12T01:36:24.527Z,94.54
2023-01-12T01:38:56.112Z,94.49
2023-01-12T01:41:32.886Z,94.65
2023-01-12T01:44:06.081Z,94.74
2023-01-12T01:46:35.627Z,94.81
2023-01-12T01:49:27.081Z,94.84
2023-01-12T01:52:03.313Z,95.00
2023-01-12T01:54:35.712Z,94.88
2023-01-12T01:57:31.832Z,95.10
2023-01-12T02:00:08.547Z,94.97
2023-01-12T02:02:39.686Z,94.94
2023-01-12T02:05:11.819Z,95.09
2023-01-12T02:07:41.226Z,94.89
2023-01-12T02:10:11.804Z,95.11
2023-01-12T02:13:01.291Z,95.28
2023-01-12T02:15:58.995Z,95.26
2023-01-12T02:18:33.861Z,95.29
2023-01-12T02:21:10.280Z,95.34
2023-01-12T02:23:58.391Z,95.19
2023-01-12T02:26:37.260Z,95.35
2023-01-12T02:29:06.827Z,95.41
2023-01-12T02:32:02.203Z,95.44
2023-01-12T02:34:34.284Z,95.33
2023-01-12T02:37:07.141Z,95.74
2023-01-12T02:39:58.926Z,95.31
2023-01-12T02:42:44.810Z,95.57
2023-01-12T02:45:28.506Z,95.92
2023-01-12T02:48:07.108Z,95.66
2023-01-12T02:50:42.393Z,95.65
2023-01-12T02:53:21.410Z,95.98
2023-01-12T02:55:52.648Z,95.74
2023-01-12T02:58:27.024Z,95.78
2023-01-12T03:00:57.758Z,95.81
2023-01-12T03:03:28.961Z,95.82
2023-01-12T03:06:00.416Z,95.79
2023-01-12T03:08:32.252Z,95.88
2023-01-12T03:11:07.623Z,95.70
2023-01-12T03:13:42.061Z,95.76
2023-01-12T03:16:15.082Z,96.10
2023-01-12T03:19:03.182Z,95.67
2023-01-12T03:21:37.305Z,96.04
2023-01-12T03:24:11.910Z,96.19
2023-01-12T03:26:47.603Z,95.99
2023-01-12T03:29:37.370Z,96.08
2023-01-12T03:32:08.721Z,96.36
2023-01-12T03:34:39.577Z,96.14
2023-01-12T03:37:18.933Z,96.38
2023-01-12T03:40:10.431Z,96.50
2023-01-12T03:42:59.819Z,96.24
2023-01-12T03:45:30.512Z,96.30
2023-01-12T03:48:28.343Z,96.53
2023-01-12T03:51:01.050Z,96.33
2023-01-12T03:53:32.429Z,96.30
2023-01-12T03:56:04.814Z,96.51
2023-01-12T03:58:39.024Z,96.44
2023-01-12T04:01:09.283Z,96.41
2023-01-12T04:03:40.574Z,96.55
2023-01-12T04:06:14.958Z,96.54
2023-01-12T04:08:45.757Z,96.74
2023-01-12T04:11:34.187Z,96.91
2023-01-12T04:14:05.382Z,97.18
2023-01-12T04:16:35.708Z,97.00
2023-01-12T04:19:08.306Z,96.87
2023-01-12T04:21:55.597Z,96.76
2023-01-12T04:24:26.646Z,97.22
2023-01-12T04:26:59.077Z,96.92
2023-01-12T04:29:28.777Z,96.96
2023-01-12T04:32:01.961Z,97.09
2023-01-12T04:34:34.509Z,96.95
2023-01-12T04:37:04.927Z,97.04
2023-01-12T04:39:36.702Z,97.28
2023-01-12T04:42:27.075Z,97.31
2023-01-12T04:44:58.844Z,97.25
2023-01-12T04:47:28.727Z,97.34
2023-01-12T04:50:01.170Z,97.26
2023-01-12T04:52:30.635Z,97.18
2023-01-12T04:55:05.204Z,97.26
2023-01-12T04:57:38.147Z,97.23
2023-01-12T05:00:09.551Z,97.15
2023-01-12T05:02:41.531Z,97.23
2023-01-12T05:05:12.074Z,97.02
2023-01-12T05:08:03.905Z,97.40
2023-01-12T05:10:34.477Z,97.41
2023-01-12T05:13:05.028Z,97.18
2023-01-12T05:15:38.586Z,97.48
2023-01-12T05:18:09.682Z,97.00
2023-01-12T05:20:40.349Z,97.56
2023-01-12T05:23:11.935Z,97.27
2023-01-12T05:25:41.704Z,97.79
2023-01-12T05:28:14.058Z,97.33
2023-01-12T05:30:47.199Z,97.53
2023-01-12T05:33:16.861Z,97.51
2023-01-12T05:35:50.392Z,97.25
2023-01-12T05:38:21.601Z,97.34
2023-01-12T05:40:55.098Z,97.09
2023-01-12T05:43:44.649Z,97.43
2023-01-12T05:46:16.674Z,97.52
2023-01-12T05:48:47.969Z,97.32
2023-01-12T05:51:21.182Z,97.35
2023-01-12T05:53:51.527Z,97.53
2023-01-12T05:56:27.003Z,97.58
2023-01-12T05:59:22.780Z,97.22
2023-01-12T06:01:54.226Z,97.22
2023-01-12T06:04:31.102Z,97.23
2023-01-12T06:07:02.207Z,96.99
2023-01-12T06:09:36.237Z,97.18
2023-01-12T06:12:26.281Z,96.98
2023-01-12T06:14:57.399Z,97.39
2023-01-12T06:17:26.332Z,97.47
2023-01-12T06:19:58.168Z,97.50
2023-01-12T06:22:28.888Z,97.51
2023-01-12T06:25:02.202Z,97.40
2023-01-12T06:27:35.737Z,97.24
2023-01-12T06:30:10.713Z,97.16
2023-01-12T06:32:42.040Z,96.90
2023-01-12T06:35:19.055Z,96.87
2023-01-12T06:37:50.398Z,96.73
2023-01-12T06:40:20.668Z,97.03
2023-01-12T06:42:50.076Z,97.09
2023-01-12T06:45:23.918Z,97.12
2023-01-12T06:48:02.127Z,97.18
2023-01-12T06:50:37.796Z,97.49
2023-01-12T06:53:21.366Z,97.58
2023-01-12T06:55:52.257Z,97.41
2023-01-12T06:58:23.268Z,97.44
2023-01-12T07:00:55.301Z,97.63
2023-01-12T07:03:25.057Z,97.69
2023-01-12T07:05:54.500Z,97.14
2023-01-12T07:08:23.487Z,97.26
2023-01-12T07:10:54.918Z,97.07
2023-01-12T07:13:29.109Z,96.93
2023-01-12T07:16:01.666Z,96.90
2023-01-12T07:18:33.040Z,97.12
2023-01-12T07:21:07.055Z,96.77
2023-01-12T07:23:38.183Z,96.66
2023-01-12T07:26:07.881Z,96.68
2023-01-12T07:28:39.796Z,96.61
2023-01-12T07:31:10.328Z,96.50
2023-01-12T07:33:39.370Z,96.77
2023-01-12T07:36:11.189Z,96.57
2023-01-12T07:38:42.568Z,96.52
2023-01-12T07:41:32.085Z,96.37
2023-01-12T07:44:13.917Z,96.39
2023-01-12T07:46:45.194Z,95.97
2023-01-12T07:49:17.593Z,95.58
2023-01-12T07:51:46.683Z,95.10
2023-01-12T07:54:16.921Z,94.96
2023-01-12T07:56:47.085Z,94.61
2023-01-12T07:59:16.187Z,94.57
2023-01-12T08:01:45.742Z,94.56
2023-01-12T08:04:17.915Z,94.93
2023-01-12T08:06:46.680Z,94.70
2023-01-12T08:09:17.352Z,94.79
2023-01-12T08:11:48.133Z,94.72
2023-01-12T08:14:29.895Z,94.76
2023-01-12T08:17:02.031Z,94.75
2023-01-12T08:19:37.629Z,94.61
2023-01-12T08:22:11.492Z,95.09
2023-01-12T08:24:45.187Z,94.61
2023-01-12T08:27:16.750Z,94.74
2023-01-12T08:29:48.037Z,94.92
2023-01-12T08:32:19.238Z,94.86
2023-01-12T08:34:52.848Z,95.05
2023-01-12T08:37:23.398Z,95.19
2023-01-12T08:39:55.916Z,94.96
2023-01-12T08:42:28.830Z,95.17
2023-01-12T08:45:00.798Z,94.94
2023-01-12T08:47:31.380Z,94.99
2023-01-12T08:50:02.262Z,94.90
2023-01-12T08:52:32.970Z,94.92
2023-01-12T08:55:02.577Z,95.17
2023-01-12T08:57:59.783Z,95.04
2023-01-12T09:00:31.007Z,94.64
2023-01-12T09:03:02.805Z,94.48
2023-01-12T09:05:34.363Z,94.42
2023-01-12T09:08:05.221Z,94.41
2023-01-12T09:10:35.836Z,91.21
2023-01-12T09:13:06.491Z,90.40
2023-01-12T09:15:37.429Z,88.94
2023-01-12T09:18:08.023Z,88.39
2023-01-12T09:20:40.472Z,87.94
2023-01-12T09:23:11.818Z,86.29
2023-01-12T09:25:40.918Z,85.45
2023-01-12T09:28:12.208Z,83.70
2023-01-12T09:30:41.188Z,81.88
2023-01-12T09:33:10.765Z,82.59
2023-01-12T09:35:39.559Z,83.35
2023-01-12T09:38:08.421Z,82.40
2023-01-12T09:40:42.075Z,81.20
2023-01-12T09:43:32.749Z,79.65
2023-01-12T09:46:20.693Z,79.41
2023-01-12T09:48:49.333Z,78.98
2023-01-12T09:51:41.076Z,77.52
2023-01-12T09:54:10.709Z,77.62
2023-01-12T09:56:41.829Z,76.62
2023-01-12T09:59:38.494Z,79.00
2023-01-12T10:02:10.630Z,82.45
2023-01-12T10:04:40.478Z,84.97
2023-01-12T10:07:14.250Z,87.17
2023-01-12T10:09:43.903Z,88.71
2023-01-12T10:12:42.355Z,90.11
2023-01-12T10:15:26.184Z,91.65
2023-01-12T10:18:17.684Z,92.02
2023-01-12T10:20:46.560Z,89.46
2023-01-12T10:23:17.266Z,90.00
2023-01-12T10:25:50.958Z,90.43
2023-01-12T10:28:34.045Z,90.04
2023-01-12T10:31:02.860Z,89.83
2023-01-12T10:33:34.762Z,90.68
2023-01-12T10:36:03.607Z,91.05
2023-01-12T10:38:39.904Z,91.71
2023-01-12T10:41:19.403Z,92.18
2023-01-12T10:44:00.421Z,92.58
2023-01-12T10:46:32.908Z,92.47
2023-01-12T10:49:20.779Z,92.61
2023-01-12T10:52:00.185Z,92.69
2023-01-12T10:54:36.224Z,92.71
2023-01-12T10:57:08.872Z,92.45
2023-01-12T10:59:38.936Z,92.15
2023-01-12T11:02:10.295Z,91.91
2023-01-12T11:04:44.148Z,91.85
2023-01-12T11:07:14.394Z,91.72
2023-01-12T11:09:44.670Z,91.82
2023-01-12T11:12:19.185Z,91.52
2023-01-12T11:15:08.248Z,91.71
2023-01-12T11:17:50.120Z,91.42
2023-01-12T11:20:25.365Z,91.14
2023-01-12T11:22:56.231Z,90.96
2023-01-12T11:25:26.530Z,90.76
2023-01-12T11:28:00.302Z,90.45
2023-01-12T11:30:38.146Z,90.48
2023-01-12T11:33:18.630Z,90.48
2023-01-12T11:36:14.011Z,90.62
2023-01-12T11:38:51.760Z,90.25
2023-01-12T11:41:27.464Z,90.16
2023-01-12T11:44:16.290Z,89.58
2023-01-12T11:47:12.932Z,89.43
2023-01-12T11:49:51.922Z,89.28
2023-01-12T11:52:26.095Z,88.95
2023-01-12T11:54:56.393Z,89.04
2023-01-12T11:57:46.442Z,88.81
2023-01-12T12:00:26.241Z,88.69
2023-01-12T12:03:15.026Z,88.56
2023-01-12T12:06:04.563Z,88.63
2023-01-12T12:09:04.054Z,88.69
2023-01-12T12:12:08.385Z,88.79
2023-01-12T12:14:38.367Z,88.46
2023-01-12T12:17:25.743Z,88.38
2023-01-12T12:20:14.494Z,88.49
2023-01-12T12:22:59.469Z,88.48
2023-01-12T12:25:42.956Z,88.38
2023-01-12T12:28:46.973Z,88.16
2023-01-12T12:31:37.370Z,88.24
2023-01-12T12:34:14.448Z,88.26
2023-01-12T12:36:52.393Z,88.18
2023-01-12T12:51:49.817Z,87.83
2023-01-12T12:54:28.540Z,87.82
2023-01-12T12:57:00.471Z,87.34
2023-01-12T12:59:33.769Z,87.35
2023-01-12T13:02:06.112Z,87.18
2023-01-12T13:04:46.855Z,87.28
2023-01-12T13:07:20.623Z,87.00
2023-01-12T13:09:54.685Z,87.18
2023-01-12T13:12:48.141Z,87.09
2023-01-12T13:15:22.738Z,87.25
2023-01-12T13:17:54.371Z,86.91
2023-01-12T13:20:50.423Z,87.02
2023-01-12T13:23:40.758Z,86.84
2023-01-12T13:26:26.039Z,86.82
2023-01-12T13:29:33.759Z,86.69
2023-01-12T13:32:21.370Z,86.52
2023-01-12T13:34:57.073Z,86.73
2023-01-12T13:37:51.355Z,86.55
2023-01-12T13:40:29.535Z,86.32
2023-01-12T13:43:20.091Z,86.11
2023-01-12T13:45:52.982Z,86.27
2023-01-12T13:48:25.733Z,85.99
2023-01-12T13:50:57.892Z,86.00
2023-01-12T13:53:31.091Z,85.82
2023-01-12T13:56:03.077Z,85.87
2023-01-12T13:58:59.420Z,85.82
2023-01-12T14:01:40.595Z,85.60
2023-01-12T14:04:36.203Z,85.76
2023-01-12T14:07:23.707Z,85.49
2023-01-12T14:10:12.279Z,85.64
2023-01-12T14:12:50.962Z,85.41
2023-01-12T14:15:41.838Z,85.45
2023-01-12T14:18:15.983Z,85.57
2023-01-12T14:20:48.957Z,85.51
2023-01-12T14:23:22.136Z,85.24
2023-01-12T14:26:05.017Z,84.92
2023-01-12T14:28:34.756Z,84.97
2023-01-12T14:31:05.413Z,84.73
2023-01-12T14:33:38.177Z,84.78
2023-01-12T14:36:14.190Z,84.87
2023-01-12T14:38:46.810Z,84.55
2023-01-12T14:41:39.050Z,85.03
2023-01-12T14:44:35.887Z,84.64
2023-01-12T14:47:07.466Z,84.82
2023-01-12T14:49:38.492Z,84.84
2023-01-12T14:52:13.951Z,84.54
2023-01-12T14:54:48.176Z,84.75
2023-01-12T14:57:46.569Z,84.55
2023-01-12T15:00:23.971Z,84.49
2023-01-12T15:02:56.254Z,84.85
2023-01-12T15:05:27.801Z,84.63
2023-01-12T15:08:01.709Z,84.46
2023-01-12T15:10:36.002Z,84.44
2023-01-12T15:13:26.850Z,84.80
2023-01-12T15:16:15.783Z,84.69
2023-01-12T15:19:06.622Z,84.88
2023-01-12T15:21:56.308Z,84.89
2023-01-12T15:24:48.425Z,84.59
2023-01-12T15:27:19.043Z,84.64
2023-01-12T15:29:51.288Z,84.82
2023-01-12T15:32:45.537Z,84.86
2023-01-12T15:35:19.551Z,84.60
2023-01-12T15:37:51.474Z,84.64
2023-01-12T15:40:21.958Z,84.52
2023-01-12T15:42:53.631Z,84.22
2023-01-12T15:45:30.611Z,84.20
2023-01-12T15:48:01.098Z,84.45
2023-01-12T15:50:32.867Z,84.19
2023-01-12T15:53:05.215Z,84.18
2023-01-12T15:55:36.630Z,84.37
2023-01-12T15:58:08.331Z,84.22
2023-01-12T16:00:41.197Z,84.18
2023-01-12T16:03:38.117Z,84.13
2023-01-12T16:06:04.674Z,84.17
2023-01-12T16:08:37.366Z,84.46
2023-01-12T16:11:10.557Z,83.98
2023-01-12T16:13:42.480Z,84.21
2023-01-12T16:16:15.715Z,83.87
2023-01-12T16:18:48.176Z,83.79
2023-01-12T16:21:19.131Z,84.05
2023-01-12T16:23:50.579Z,83.94
2023-01-12T16:26:23.170Z,84.05
2023-01-12T16:28:53.936Z,83.65
2023-01-12T16:31:28.029Z,84.08
2023-01-12T16:33:57.703Z,83.78
2023-01-12T16:36:32.003Z,83.94
2023-01-12T16:39:03.365Z,83.85
2023-01-12T16:41:34.021Z,83.90
2023-01-12T16:44:05.049Z,83.70
2023-01-12T16:46:35.491Z,83.81
2023-01-12T16:49:06.504Z,83.67
2023-01-12T16:51:36.744Z,83.75
2023-01-12T16:54:07.344Z,83.74
2023-01-12T16:56:36.999Z,83.56
2023-01-12T17:00:00.909Z,83.69
2023-01-12T17:02:34.957Z,83.84
2023-01-12T17:05:09.038Z,83.75
2023-01-12T17:07:38.149Z,83.80
2023-01-12T17:10:11.023Z,84.14
2023-01-12T17:12:54.139Z,83.83
2023-01-12T17:15:32.588Z,84.03
2023-01-12T17:18:04.802Z,83.88
2023-01-12T17:20:34.855Z,83.79
2023-01-12T17:23:09.316Z,83.86
2023-01-12T17:25:43.011Z,84.01
2023-01-12T17:28:12.496Z,83.80
2023-01-12T17:30:46.682Z,83.82
2023-01-12T17:33:17.742Z,83.48
2023-01-12T17:35:49.523Z,83.49
2023-01-12T17:38:20.153Z,83.69
2023-01-12T17:40:50.540Z,83.41
2023-01-12T17:43:22.933Z,83.77
2023-01-12T17:45:55.133Z,83.77
2023-01-12T17:48:27.479Z,83.46
2023-01-12T17:51:00.391Z,83.39
2023-01-12T17:53:33.337Z,83.49
2023-01-12T17:56:04.643Z,83.67
2023-01-12T17:58:38.219Z,83.45
2023-01-12T18:01:13.364Z,83.23
2023-01-12T18:03:46.104Z,83.21
2023-01-12T18:06:26.475Z,83.21
2023-01-12T18:08:57.640Z,83.25
2023-01-12T18:11:30.587Z,83.21
2023-01-12T18:14:01.642Z,83.62
2023-01-12T18:16:45.201Z,83.57
2023-01-12T18:19:16.429Z,83.58
2023-01-12T18:21:47.996Z,83.52
2023-01-12T18:24:39.543Z,83.22
2023-01-12T18:27:15.922Z,83.75
2023-01-12T18:29:46.225Z,83.36
2023-01-12T18:32:17.430Z,83.46
2023-01-12T18:34:50.893Z,83.74
2023-01-12T18:37:21.285Z,83.73
2023-01-12T18:39:50.581Z,83.29
2023-01-12T18:42:39.851Z,83.72
2023-01-12T18:45:12.735Z,83.61
2023-01-12T18:48:00.612Z,83.36
2023-01-12T18:50:49.734Z,83.83
2023-01-12T18:53:26.129Z,83.66
2023-01-12T18:56:00.789Z,83.54
2023-01-12T18:58:54.636Z,83.57
2023-01-12T19:01:26.845Z,83.72
2023-01-12T19:03:58.866Z,83.81
2023-01-12T19:06:46.641Z,83.40
2023-01-12T19:09:38.629Z,83.56
2023-01-12T19:12:09.605Z,83.85
2023-01-12T19:15:02.166Z,83.62
2023-01-12T19:17:33.825Z,83.95
2023-01-12T19:20:09.561Z,83.62
2023-01-12T19:22:59.048Z,83.65
2023-01-12T19:25:51.286Z,83.72
2023-01-12T19:28:38.993Z,83.53
2023-01-12T19:31:17.164Z,83.77
2023-01-12T19:33:48.685Z,83.81
2023-01-12T19:36:19.041Z,83.64
2023-01-12T19:38:54.563Z,83.82
2023-01-12T19:41:43.965Z,83.83
2023-01-12T19:44:16.967Z,83.76
2023-01-12T19:46:47.888Z,83.90
2023-01-12T19:49:17.964Z,83.86
2023-01-12T19:51:50.281Z,84.00
2023-01-12T19:54:25.052Z,83.99
2023-01-12T19:56:56.226Z,83.93
2023-01-12T19:59:26.859Z,84.11
2023-01-12T20:01:58.131Z,84.01
2023-01-12T20:08:52.931Z,83.88
2023-01-12T20:11:25.492Z,83.94
2023-01-12T20:13:56.949Z,83.78
2023-01-12T20:16:29.058Z,83.69
2023-01-12T20:19:02.328Z,83.83
2023-01-12T20:21:34.493Z,83.84
2023-01-12T20:24:04.508Z,83.68
2023-01-12T20:26:36.676Z,83.88
2023-01-12T20:29:09.914Z,83.84
2023-01-12T20:31:41.087Z,83.96
2023-01-12T20:34:13.016Z,83.84
2023-01-12T20:36:48.043Z,83.44
2023-01-12T20:39:19.341Z,83.64
2023-01-12T20:41:51.009Z,83.52
2023-01-12T20:44:21.821Z,83.75
2023-01-12T20:46:54.493Z,83.59
2023-01-12T20:49:24.380Z,83.78
2023-01-12T20:51:57.571Z,83.61
2023-01-12T20:54:29.680Z,83.96
2023-01-12T20:56:59.973Z,83.37
2023-01-12T20:59:35.674Z,84.01
2023-01-12T21:02:05.792Z,83.91
2023-01-12T21:04:38.532Z,83.81
2023-01-12T21:07:07.606Z,83.70
2023-01-12T21:09:40.152Z,83.84
2023-01-12T21:12:10.885Z,83.87
2023-01-12T21:14:43.047Z,83.88
2023-01-12T21:17:14.942Z,83.68
2023-01-12T21:19:45.347Z,83.80
2023-01-12T21:22:16.761Z,83.87
2023-01-12T21:24:46.846Z,83.58
2023-01-12T21:27:17.654Z,83.73
2023-01-12T21:29:49.644Z,83.69
2023-01-12T21:32:20.143Z,83.73
2023-01-12T21:34:51.805Z,83.80
2023-01-12T21:37:22.894Z,83.66
2023-01-12T21:39:52.994Z,83.38
2023-01-12T21:42:40.745Z,83.69
2023-01-12T21:45:12.042Z,83.96
2023-01-12T21:47:42.945Z,83.86
2023-01-12T21:50:14.544Z,83.77
2023-01-12T21:52:45.528Z,83.74
2023-01-12T21:55:16.153Z,83.78
2023-01-12T21:58:36.123Z,83.83
2023-01-12T22:01:12.382Z,83.70
2023-01-12T22:03:42.725Z,83.78
2023-01-12T22:06:14.401Z,83.70
2023-01-12T22:08:45.060Z,83.75
2023-01-12T22:11:16.810Z,83.80
2023-01-12T22:13:48.167Z,83.82
2023-01-12T22:16:19.368Z,83.85
2023-01-12T22:18:52.887Z,83.71
2023-01-12T22:21:25.063Z,84.06
2023-01-12T22:23:56.620Z,83.99
2023-01-12T22:26:28.738Z,83.80
2023-01-12T22:28:58.402Z,83.76
2023-01-12T22:31:29.594Z,83.98
2023-01-12T22:34:07.287Z,84.06
2023-01-12T22:36:43.992Z,84.14
2023-01-12T22:39:14.533Z,84.18
2023-01-12T22:41:45.254Z,83.82
2023-01-12T22:44:16.424Z,84.24
2023-01-12T22:46:46.807Z,84.11
2023-01-12T22:49:17.214Z,84.15
2023-01-12T22:51:47.514Z,84.08
2023-01-12T22:54:18.019Z,84.06
2023-01-12T22:56:49.026Z,84.09
2023-01-12T22:59:19.459Z,84.21
2023-01-12T23:01:50.660Z,84.11
2023-01-12T23:04:21.875Z,84.02
2023-01-12T23:06:52.594Z,84.17
2023-01-12T23:09:23.903Z,84.24
2023-01-12T23:11:56.447Z,84.26
2023-01-12T23:14:26.825Z,84.24
2023-01-12T23:16:57.747Z,84.31
2023-01-12T23:19:29.561Z,84.11
2023-01-12T23:22:04.541Z,84.19
2023-01-12T23:24:36.884Z,84.11
2023-01-12T23:27:07.453Z,84.24
2023-01-12T23:29:37.451Z,84.44
2023-01-12T23:32:11.411Z,84.28
2023-01-12T23:34:42.643Z,84.58
2023-01-12T23:37:15.068Z,84.47
2023-01-12T23:39:47.951Z,84.56
2023-01-12T23:42:21.056Z,84.30
2023-01-12T23:44:52.075Z,84.51
2023-01-12T23:47:24.104Z,84.73
2023-01-12T23:49:54.332Z,84.58
2023-01-12T23:52:26.613Z,84.46
2023-01-12T23:54:58.809Z,84.49
2023-01-12T23:57:30.241Z,84.43
